sensor_id;sensor_type;location;lat;lon;timestamp;P1;durP1;ratioP1;P2;durP2;ratioP2
63112;SDS011;49206;48.020;21.378;2022-10-16T00:00:43;35.70;;;20.75;;
63112;SDS011;49206;48.020;21.378;2022-10-16T00:01:45;32.42;;;18.80;;
63112;SDS011;49206;48.020;21.378;2022-10-16T00:02:48;36.80;;;21.55;;
63112;SDS011;49206;48.020;21.378;2022-10-16T00:03:50;36.58;;;21.92;;
63112;SDS011;49206;48.020;21.378;2022-10-16T00:04:53;35.88;;;21.30;;
63112;SDS011;49206;48.020;21.378;2022-10-16T00:05:58;34.03;;;21.25;;
63112;SDS011;49206;48.020;21.378;2022-10-16T00:07:03;35.15;;;19.73;;
63112;SDS011;49206;48.020;21.378;2022-10-16T00:08:05;36.10;;;20.77;;
63112;SDS011;49206;48.020;21.378;2022-10-16T00:09:08;38.05;;;22.63;;
63112;SDS011;49206;48.020;21.378;2022-10-16T00:10:10;39.63;;;22.08;;
63112;SDS011;49206;48.020;21.378;2022-10-16T00:11:16;31.83;;;20.90;;
63112;SDS011;49206;48.020;21.378;2022-10-16T00:12:21;36.58;;;21.52;;
63112;SDS011;49206;48.020;21.378;2022-10-16T00:13:24;34.40;;;21.42;;
63112;SDS011;49206;48.020;21.378;2022-10-16T00:14:26;34.42;;;22.23;;
63112;SDS011;49206;48.020;21.378;2022-10-16T00:15:28;32.53;;;21.48;;
63112;SDS011;49206;48.020;21.378;2022-10-16T00:16:31;35.70;;;21.58;;
63112;SDS011;49206;48.020;21.378;2022-10-16T00:17:34;35.28;;;22.63;;
63112;SDS011;49206;48.020;21.378;2022-10-16T00:18:36;33.60;;;21.13;;
63112;SDS011;49206;48.020;21.378;2022-10-16T00:19:39;31.13;;;21.02;;
63112;SDS011;49206;48.020;21.378;2022-10-16T00:20:41;33.28;;;21.27;;
63112;SDS011;49206;48.020;21.378;2022-10-16T00:21:43;34.47;;;21.33;;
63112;SDS011;49206;48.020;21.378;2022-10-16T00:22:45;31.85;;;20.23;;
63112;SDS011;49206;48.020;21.378;2022-10-16T00:23:51;35.35;;;21.30;;
63112;SDS011;49206;48.020;21.378;2022-10-16T00:24:58;34.05;;;20.88;;
63112;SDS011;49206;48.020;21.378;2022-10-16T00:26:01;36.03;;;22.52;;
63112;SDS011;49206;48.020;21.378;2022-10-16T00:27:06;32.33;;;19.40;;
63112;SDS011;49206;48.020;21.378;2022-10-16T00:28:09;32.17;;;20.50;;
63112;SDS011;49206;48.020;21.378;2022-10-16T00:29:11;34.72;;;20.45;;
63112;SDS011;49206;48.020;21.378;2022-10-16T00:30:13;34.67;;;21.33;;
63112;SDS011;49206;48.020;21.378;2022-10-16T00:31:16;33.92;;;22.70;;
63112;SDS011;49206;48.020;21.378;2022-10-16T00:32:20;34.40;;;20.20;;
63112;SDS011;49206;48.020;21.378;2022-10-16T00:33:23;36.25;;;20.60;;
63112;SDS011;49206;48.020;21.378;2022-10-16T00:34:26;33.10;;;20.98;;
63112;SDS011;49206;48.020;21.378;2022-10-16T00:35:28;36.83;;;20.05;;
63112;SDS011;49206;48.020;21.378;2022-10-16T00:36:30;30.85;;;20.98;;
63112;SDS011;49206;48.020;21.378;2022-10-16T00:37:33;35.47;;;21.45;;
63112;SDS011;49206;48.020;21.378;2022-10-16T00:38:36;31.73;;;20.73;;
63112;SDS011;49206;48.020;21.378;2022-10-16T00:39:39;34.28;;;21.55;;
63112;SDS011;49206;48.020;21.378;2022-10-16T00:40:42;31.30;;;20.83;;
63112;SDS011;49206;48.020;21.378;2022-10-16T00:41:44;34.83;;;20.95;;
63112;SDS011;49206;48.020;21.378;2022-10-16T00:42:47;35.75;;;21.25;;
63112;SDS011;49206;48.020;21.378;2022-10-16T00:43:53;33.13;;;21.05;;
63112;SDS011;49206;48.020;21.378;2022-10-16T00:45:00;33.40;;;20.30;;
63112;SDS011;49206;48.020;21.378;2022-10-16T00:46:04;36.17;;;21.52;;
63112;SDS011;49206;48.020;21.378;2022-10-16T00:47:15;32.60;;;21.13;;
63112;SDS011;49206;48.020;21.378;2022-10-16T00:48:21;35.53;;;21.77;;
63112;SDS011;49206;48.020;21.378;2022-10-16T00:49:24;36.47;;;22.02;;
63112;SDS011;49206;48.020;21.378;2022-10-16T00:50:27;35.15;;;22.45;;
63112;SDS011;49206;48.020;21.378;2022-10-16T00:51:35;37.50;;;21.98;;
63112;SDS011;49206;48.020;21.378;2022-10-16T00:52:48;32.90;;;20.42;;
63112;SDS011;49206;48.020;21.378;2022-10-16T00:53:53;35.45;;;21.02;;
63112;SDS011;49206;48.020;21.378;2022-10-16T00:54:56;34.08;;;21.58;;
63112;SDS011;49206;48.020;21.378;2022-10-16T00:56:00;33.72;;;19.95;;
63112;SDS011;49206;48.020;21.378;2022-10-16T00:57:05;32.72;;;20.73;;
63112;SDS011;49206;48.020;21.378;2022-10-16T00:58:09;35.70;;;20.83;;
63112;SDS011;49206;48.020;21.378;2022-10-16T00:59:14;35.42;;;21.52;;
63112;SDS011;49206;48.020;21.378;2022-10-16T01:00:21;34.88;;;21.27;;
63112;SDS011;49206;48.020;21.378;2022-10-16T01:01:25;33.30;;;20.77;;
63112;SDS011;49206;48.020;21.378;2022-10-16T01:02:27;39.63;;;20.88;;
63112;SDS011;49206;48.020;21.378;2022-10-16T01:03:34;38.05;;;22.95;;
63112;SDS011;49206;48.020;21.378;2022-10-16T01:04:39;37.70;;;21.15;;
63112;SDS011;49206;48.020;21.378;2022-10-16T01:05:49;31.60;;;20.08;;
63112;SDS011;49206;48.020;21.378;2022-10-16T01:08:50;32.38;;;20.65;;
63112;SDS011;49206;48.020;21.378;2022-10-16T01:11:38;31.65;;;20.33;;
63112;SDS011;49206;48.020;21.378;2022-10-16T01:14:11;34.78;;;20.25;;
63112;SDS011;49206;48.020;21.378;2022-10-16T01:16:41;34.85;;;20.92;;
63112;SDS011;49206;48.020;21.378;2022-10-16T01:18:03;34.65;;;19.58;;
63112;SDS011;49206;48.020;21.378;2022-10-16T01:20:58;33.65;;;20.98;;
63112;SDS011;49206;48.020;21.378;2022-10-16T01:22:11;32.60;;;20.55;;
63112;SDS011;49206;48.020;21.378;2022-10-16T01:23:25;35.35;;;20.30;;
63112;SDS011;49206;48.020;21.378;2022-10-16T01:24:40;33.00;;;20.38;;
63112;SDS011;49206;48.020;21.378;2022-10-16T01:27:25;35.65;;;21.42;;
63112;SDS011;49206;48.020;21.378;2022-10-16T01:28:36;32.42;;;22.10;;
63112;SDS011;49206;48.020;21.378;2022-10-16T01:31:06;31.23;;;20.38;;
63112;SDS011;49206;48.020;21.378;2022-10-16T01:32:19;33.60;;;21.85;;
63112;SDS011;49206;48.020;21.378;2022-10-16T01:34:41;32.72;;;20.90;;
63112;SDS011;49206;48.020;21.378;2022-10-16T01:35:52;33.60;;;20.88;;
63112;SDS011;49206;48.020;21.378;2022-10-16T01:37:02;33.53;;;21.98;;
63112;SDS011;49206;48.020;21.378;2022-10-16T01:38:14;32.25;;;20.08;;
63112;SDS011;49206;48.020;21.378;2022-10-16T01:39:21;38.40;;;21.33;;
63112;SDS011;49206;48.020;21.378;2022-10-16T01:40:28;34.97;;;22.05;;
63112;SDS011;49206;48.020;21.378;2022-10-16T01:41:36;34.30;;;22.40;;
63112;SDS011;49206;48.020;21.378;2022-10-16T01:42:43;35.53;;;21.92;;
63112;SDS011;49206;48.020;21.378;2022-10-16T01:43:53;33.50;;;21.40;;
63112;SDS011;49206;48.020;21.378;2022-10-16T01:45:19;32.28;;;21.02;;
63112;SDS011;49206;48.020;21.378;2022-10-16T01:46:22;34.83;;;21.67;;
63112;SDS011;49206;48.020;21.378;2022-10-16T01:47:26;32.78;;;21.23;;
63112;SDS011;49206;48.020;21.378;2022-10-16T01:48:30;33.90;;;21.58;;
63112;SDS011;49206;48.020;21.378;2022-10-16T01:49:35;33.28;;;21.27;;
63112;SDS011;49206;48.020;21.378;2022-10-16T01:50:41;35.85;;;21.38;;
63112;SDS011;49206;48.020;21.378;2022-10-16T01:51:46;30.13;;;20.27;;
63112;SDS011;49206;48.020;21.378;2022-10-16T01:52:53;35.63;;;22.48;;
63112;SDS011;49206;48.020;21.378;2022-10-16T01:53:57;35.53;;;20.45;;
63112;SDS011;49206;48.020;21.378;2022-10-16T01:55:03;32.88;;;19.98;;
63112;SDS011;49206;48.020;21.378;2022-10-16T01:56:09;38.05;;;19.73;;
63112;SDS011;49206;48.020;21.378;2022-10-16T01:57:15;31.88;;;19.88;;
63112;SDS011;49206;48.020;21.378;2022-10-16T01:58:20;35.65;;;20.55;;
63112;SDS011;49206;48.020;21.378;2022-10-16T01:59:25;29.80;;;18.95;;
63112;SDS011;49206;48.020;21.378;2022-10-16T02:00:33;33.80;;;22.23;;
63112;SDS011;49206;48.020;21.378;2022-10-16T02:01:36;34.05;;;21.42;;
63112;SDS011;49206;48.020;21.378;2022-10-16T02:02:43;31.15;;;20.60;;
63112;SDS011;49206;48.020;21.378;2022-10-16T02:03:49;35.15;;;18.95;;
63112;SDS011;49206;48.020;21.378;2022-10-16T02:04:57;30.67;;;20.25;;
63112;SDS011;49206;48.020;21.378;2022-10-16T02:06:03;32.67;;;21.48;;
63112;SDS011;49206;48.020;21.378;2022-10-16T02:07:05;31.40;;;20.38;;
63112;SDS011;49206;48.020;21.378;2022-10-16T02:08:08;32.13;;;20.58;;
63112;SDS011;49206;48.020;21.378;2022-10-16T02:09:11;34.25;;;21.05;;
63112;SDS011;49206;48.020;21.378;2022-10-16T02:10:13;29.88;;;19.92;;
63112;SDS011;49206;48.020;21.378;2022-10-16T02:11:16;34.65;;;20.90;;
63112;SDS011;49206;48.020;21.378;2022-10-16T02:12:21;31.65;;;21.50;;
63112;SDS011;49206;48.020;21.378;2022-10-16T02:14:47;34.10;;;20.63;;
63112;SDS011;49206;48.020;21.378;2022-10-16T02:15:49;34.97;;;19.75;;
63112;SDS011;49206;48.020;21.378;2022-10-16T02:16:55;32.70;;;20.00;;
63112;SDS011;49206;48.020;21.378;2022-10-16T02:17:57;31.80;;;20.52;;
63112;SDS011;49206;48.020;21.378;2022-10-16T02:18:59;36.60;;;20.60;;
63112;SDS011;49206;48.020;21.378;2022-10-16T02:20:02;29.60;;;20.60;;
63112;SDS011;49206;48.020;21.378;2022-10-16T02:21:28;31.13;;;19.98;;
63112;SDS011;49206;48.020;21.378;2022-10-16T02:22:38;32.28;;;20.10;;
63112;SDS011;49206;48.020;21.378;2022-10-16T02:23:48;31.23;;;19.98;;
63112;SDS011;49206;48.020;21.378;2022-10-16T02:25:02;30.55;;;18.05;;
63112;SDS011;49206;48.020;21.378;2022-10-16T02:26:12;31.63;;;20.17;;
63112;SDS011;49206;48.020;21.378;2022-10-16T02:27:23;33.65;;;20.25;;
63112;SDS011;49206;48.020;21.378;2022-10-16T02:28:38;31.55;;;20.50;;
63112;SDS011;49206;48.020;21.378;2022-10-16T02:29:55;31.05;;;19.38;;
63112;SDS011;49206;48.020;21.378;2022-10-16T02:31:13;34.90;;;20.65;;
63112;SDS011;49206;48.020;21.378;2022-10-16T02:32:21;33.92;;;20.52;;
63112;SDS011;49206;48.020;21.378;2022-10-16T02:33:26;33.10;;;19.40;;
63112;SDS011;49206;48.020;21.378;2022-10-16T02:34:31;30.92;;;19.98;;
63112;SDS011;49206;48.020;21.378;2022-10-16T02:35:34;34.40;;;20.25;;
63112;SDS011;49206;48.020;21.378;2022-10-16T02:36:38;32.25;;;21.75;;
63112;SDS011;49206;48.020;21.378;2022-10-16T02:37:42;35.63;;;21.30;;
63112;SDS011;49206;48.020;21.378;2022-10-16T02:38:46;39.05;;;22.05;;
63112;SDS011;49206;48.020;21.378;2022-10-16T02:39:48;35.13;;;20.92;;
63112;SDS011;49206;48.020;21.378;2022-10-16T02:40:51;37.55;;;21.83;;
63112;SDS011;49206;48.020;21.378;2022-10-16T02:41:54;32.70;;;21.50;;
63112;SDS011;49206;48.020;21.378;2022-10-16T02:42:56;32.75;;;21.13;;
63112;SDS011;49206;48.020;21.378;2022-10-16T02:43:58;34.47;;;21.48;;
63112;SDS011;49206;48.020;21.378;2022-10-16T02:45:01;29.48;;;20.45;;
63112;SDS011;49206;48.020;21.378;2022-10-16T02:46:04;34.35;;;20.67;;
63112;SDS011;49206;48.020;21.378;2022-10-16T02:47:07;30.42;;;20.55;;
63112;SDS011;49206;48.020;21.378;2022-10-16T02:48:09;35.58;;;22.00;;
63112;SDS011;49206;48.020;21.378;2022-10-16T02:49:12;32.88;;;20.67;;
63112;SDS011;49206;48.020;21.378;2022-10-16T02:50:14;32.13;;;21.00;;
63112;SDS011;49206;48.020;21.378;2022-10-16T02:51:17;38.85;;;22.35;;
63112;SDS011;49206;48.020;21.378;2022-10-16T02:52:19;34.00;;;21.42;;
63112;SDS011;49206;48.020;21.378;2022-10-16T02:53:21;31.85;;;21.20;;
63112;SDS011;49206;48.020;21.378;2022-10-16T02:54:24;34.63;;;20.80;;
63112;SDS011;49206;48.020;21.378;2022-10-16T02:55:26;34.10;;;21.40;;
63112;SDS011;49206;48.020;21.378;2022-10-16T02:56:29;32.95;;;20.33;;
63112;SDS011;49206;48.020;21.378;2022-10-16T02:57:32;33.83;;;21.45;;
63112;SDS011;49206;48.020;21.378;2022-10-16T02:58:35;32.67;;;21.48;;
63112;SDS011;49206;48.020;21.378;2022-10-16T02:59:37;36.80;;;22.45;;
63112;SDS011;49206;48.020;21.378;2022-10-16T03:00:39;35.42;;;21.58;;
63112;SDS011;49206;48.020;21.378;2022-10-16T03:01:42;32.35;;;20.98;;
63112;SDS011;49206;48.020;21.378;2022-10-16T03:02:44;34.30;;;21.45;;
63112;SDS011;49206;48.020;21.378;2022-10-16T03:03:46;34.30;;;22.95;;
63112;SDS011;49206;48.020;21.378;2022-10-16T03:04:49;30.83;;;20.70;;
63112;SDS011;49206;48.020;21.378;2022-10-16T03:05:51;40.28;;;21.98;;
63112;SDS011;49206;48.020;21.378;2022-10-16T03:06:53;36.42;;;21.00;;
63112;SDS011;49206;48.020;21.378;2022-10-16T03:07:56;36.92;;;21.13;;
63112;SDS011;49206;48.020;21.378;2022-10-16T03:08:58;31.88;;;20.80;;
63112;SDS011;49206;48.020;21.378;2022-10-16T03:10:00;35.67;;;20.63;;
63112;SDS011;49206;48.020;21.378;2022-10-16T03:11:03;32.25;;;21.60;;
63112;SDS011;49206;48.020;21.378;2022-10-16T03:12:05;29.52;;;18.77;;
63112;SDS011;49206;48.020;21.378;2022-10-16T03:13:08;33.53;;;21.15;;
63112;SDS011;49206;48.020;21.378;2022-10-16T03:14:10;35.22;;;21.08;;
63112;SDS011;49206;48.020;21.378;2022-10-16T03:15:12;35.35;;;21.08;;
63112;SDS011;49206;48.020;21.378;2022-10-16T03:16:14;35.78;;;22.58;;
63112;SDS011;49206;48.020;21.378;2022-10-16T03:17:17;33.75;;;20.88;;
63112;SDS011;49206;48.020;21.378;2022-10-16T03:18:19;35.13;;;21.85;;
63112;SDS011;49206;48.020;21.378;2022-10-16T03:19:22;30.42;;;19.58;;
63112;SDS011;49206;48.020;21.378;2022-10-16T03:20:24;34.30;;;22.75;;
63112;SDS011;49206;48.020;21.378;2022-10-16T03:21:27;31.70;;;20.02;;
63112;SDS011;49206;48.020;21.378;2022-10-16T03:22:29;29.30;;;19.85;;
63112;SDS011;49206;48.020;21.378;2022-10-16T03:23:31;33.97;;;20.10;;
63112;SDS011;49206;48.020;21.378;2022-10-16T03:24:34;33.22;;;20.83;;
63112;SDS011;49206;48.020;21.378;2022-10-16T03:25:36;31.48;;;21.00;;
63112;SDS011;49206;48.020;21.378;2022-10-16T03:26:38;31.85;;;20.02;;
63112;SDS011;49206;48.020;21.378;2022-10-16T03:27:41;35.70;;;21.13;;
63112;SDS011;49206;48.020;21.378;2022-10-16T03:28:43;32.10;;;21.00;;
63112;SDS011;49206;48.020;21.378;2022-10-16T03:29:45;32.13;;;21.30;;
63112;SDS011;49206;48.020;21.378;2022-10-16T03:30:48;34.00;;;20.05;;
63112;SDS011;49206;48.020;21.378;2022-10-16T03:31:50;31.60;;;20.00;;
63112;SDS011;49206;48.020;21.378;2022-10-16T03:32:52;37.97;;;20.83;;
63112;SDS011;49206;48.020;21.378;2022-10-16T03:33:56;33.65;;;21.30;;
63112;SDS011;49206;48.020;21.378;2022-10-16T03:34:58;33.17;;;21.73;;
63112;SDS011;49206;48.020;21.378;2022-10-16T03:36:00;32.22;;;20.65;;
63112;SDS011;49206;48.020;21.378;2022-10-16T03:37:03;32.13;;;19.38;;
63112;SDS011;49206;48.020;21.378;2022-10-16T03:38:05;30.60;;;19.98;;
63112;SDS011;49206;48.020;21.378;2022-10-16T03:39:08;33.58;;;20.63;;
63112;SDS011;49206;48.020;21.378;2022-10-16T03:40:10;33.38;;;21.10;;
63112;SDS011;49206;48.020;21.378;2022-10-16T03:41:12;31.40;;;20.52;;
63112;SDS011;49206;48.020;21.378;2022-10-16T03:42:14;33.58;;;19.85;;
63112;SDS011;49206;48.020;21.378;2022-10-16T03:43:17;31.33;;;20.95;;
63112;SDS011;49206;48.020;21.378;2022-10-16T03:44:19;31.48;;;19.95;;
63112;SDS011;49206;48.020;21.378;2022-10-16T03:45:21;36.60;;;21.85;;
63112;SDS011;49206;48.020;21.378;2022-10-16T03:46:24;33.05;;;19.85;;
63112;SDS011;49206;48.020;21.378;2022-10-16T03:47:26;33.10;;;20.05;;
63112;SDS011;49206;48.020;21.378;2022-10-16T03:48:29;35.33;;;21.10;;
63112;SDS011;49206;48.020;21.378;2022-10-16T03:49:31;38.45;;;23.25;;
63112;SDS011;49206;48.020;21.378;2022-10-16T03:50:33;39.20;;;21.98;;
63112;SDS011;49206;48.020;21.378;2022-10-16T03:51:36;39.83;;;24.13;;
63112;SDS011;49206;48.020;21.378;2022-10-16T03:52:39;38.30;;;23.27;;
63112;SDS011;49206;48.020;21.378;2022-10-16T03:53:41;35.85;;;22.30;;
63112;SDS011;49206;48.020;21.378;2022-10-16T03:54:43;35.88;;;22.15;;
63112;SDS011;49206;48.020;21.378;2022-10-16T03:55:46;36.35;;;21.45;;
63112;SDS011;49206;48.020;21.378;2022-10-16T03:56:48;34.58;;;22.38;;
63112;SDS011;49206;48.020;21.378;2022-10-16T03:57:50;36.67;;;21.85;;
63112;SDS011;49206;48.020;21.378;2022-10-16T03:58:52;32.47;;;20.75;;
63112;SDS011;49206;48.020;21.378;2022-10-16T03:59:55;37.78;;;21.05;;
63112;SDS011;49206;48.020;21.378;2022-10-16T04:00:57;34.67;;;22.13;;
63112;SDS011;49206;48.020;21.378;2022-10-16T04:01:59;34.72;;;21.67;;
63112;SDS011;49206;48.020;21.378;2022-10-16T04:03:02;32.85;;;22.17;;
63112;SDS011;49206;48.020;21.378;2022-10-16T04:04:04;32.58;;;21.05;;
63112;SDS011;49206;48.020;21.378;2022-10-16T04:05:06;32.80;;;21.10;;
63112;SDS011;49206;48.020;21.378;2022-10-16T04:06:09;35.40;;;20.20;;
63112;SDS011;49206;48.020;21.378;2022-10-16T04:07:11;35.65;;;22.10;;
63112;SDS011;49206;48.020;21.378;2022-10-16T04:08:13;34.00;;;21.20;;
63112;SDS011;49206;48.020;21.378;2022-10-16T04:09:16;37.42;;;20.60;;
63112;SDS011;49206;48.020;21.378;2022-10-16T04:10:18;36.80;;;21.73;;
63112;SDS011;49206;48.020;21.378;2022-10-16T04:11:21;37.03;;;21.75;;
63112;SDS011;49206;48.020;21.378;2022-10-16T04:12:23;33.35;;;20.90;;
63112;SDS011;49206;48.020;21.378;2022-10-16T04:13:25;33.20;;;20.33;;
63112;SDS011;49206;48.020;21.378;2022-10-16T04:14:27;34.28;;;21.10;;
63112;SDS011;49206;48.020;21.378;2022-10-16T04:15:30;32.95;;;20.55;;
63112;SDS011;49206;48.020;21.378;2022-10-16T04:16:32;38.53;;;21.75;;
63112;SDS011;49206;48.020;21.378;2022-10-16T04:17:34;34.50;;;21.33;;
63112;SDS011;49206;48.020;21.378;2022-10-16T04:18:38;36.97;;;21.30;;
63112;SDS011;49206;48.020;21.378;2022-10-16T04:19:40;33.08;;;19.80;;
63112;SDS011;49206;48.020;21.378;2022-10-16T04:20:42;37.25;;;20.33;;
63112;SDS011;49206;48.020;21.378;2022-10-16T04:21:45;31.65;;;21.40;;
63112;SDS011;49206;48.020;21.378;2022-10-16T04:22:47;44.20;;;22.02;;
63112;SDS011;49206;48.020;21.378;2022-10-16T04:23:49;31.15;;;20.60;;
63112;SDS011;49206;48.020;21.378;2022-10-16T04:24:52;32.97;;;21.23;;
63112;SDS011;49206;48.020;21.378;2022-10-16T04:25:54;33.25;;;19.55;;
63112;SDS011;49206;48.020;21.378;2022-10-16T04:26:56;31.65;;;20.20;;
63112;SDS011;49206;48.020;21.378;2022-10-16T04:27:59;32.03;;;20.48;;
63112;SDS011;49206;48.020;21.378;2022-10-16T04:29:01;30.63;;;19.77;;
63112;SDS011;49206;48.020;21.378;2022-10-16T04:30:04;35.25;;;21.05;;
63112;SDS011;49206;48.020;21.378;2022-10-16T04:31:07;42.75;;;22.35;;
63112;SDS011;49206;48.020;21.378;2022-10-16T04:32:09;64.88;;;30.48;;
63112;SDS011;49206;48.020;21.378;2022-10-16T04:33:11;56.03;;;30.10;;
63112;SDS011;49206;48.020;21.378;2022-10-16T04:34:14;64.85;;;31.67;;
63112;SDS011;49206;48.020;21.378;2022-10-16T04:35:17;60.08;;;30.58;;
63112;SDS011;49206;48.020;21.378;2022-10-16T04:36:20;54.33;;;28.67;;
63112;SDS011;49206;48.020;21.378;2022-10-16T04:37:27;58.90;;;31.60;;
63112;SDS011;49206;48.020;21.378;2022-10-16T04:38:30;49.58;;;27.58;;
63112;SDS011;49206;48.020;21.378;2022-10-16T04:39:32;50.42;;;28.15;;
63112;SDS011;49206;48.020;21.378;2022-10-16T04:40:35;50.22;;;27.10;;
63112;SDS011;49206;48.020;21.378;2022-10-16T04:41:38;47.47;;;25.70;;
63112;SDS011;49206;48.020;21.378;2022-10-16T04:42:40;44.92;;;26.00;;
63112;SDS011;49206;48.020;21.378;2022-10-16T04:43:43;49.03;;;27.35;;
63112;SDS011;49206;48.020;21.378;2022-10-16T04:44:45;44.05;;;25.60;;
63112;SDS011;49206;48.020;21.378;2022-10-16T04:45:51;42.58;;;25.88;;
63112;SDS011;49206;48.020;21.378;2022-10-16T04:46:54;41.13;;;24.33;;
63112;SDS011;49206;48.020;21.378;2022-10-16T04:47:57;41.67;;;25.05;;
63112;SDS011;49206;48.020;21.378;2022-10-16T04:49:00;43.65;;;25.17;;
63112;SDS011;49206;48.020;21.378;2022-10-16T04:50:02;39.33;;;24.58;;
63112;SDS011;49206;48.020;21.378;2022-10-16T04:51:05;39.85;;;24.50;;
63112;SDS011;49206;48.020;21.378;2022-10-16T04:52:07;42.17;;;23.02;;
63112;SDS011;49206;48.020;21.378;2022-10-16T04:53:11;42.25;;;24.92;;
63112;SDS011;49206;48.020;21.378;2022-10-16T04:54:14;41.72;;;22.67;;
63112;SDS011;49206;48.020;21.378;2022-10-16T04:55:16;38.42;;;22.90;;
63112;SDS011;49206;48.020;21.378;2022-10-16T04:56:19;35.50;;;23.15;;
63112;SDS011;49206;48.020;21.378;2022-10-16T04:57:22;38.38;;;23.88;;
63112;SDS011;49206;48.020;21.378;2022-10-16T04:58:25;32.97;;;20.27;;
63112;SDS011;49206;48.020;21.378;2022-10-16T04:59:27;37.00;;;22.48;;
63112;SDS011;49206;48.020;21.378;2022-10-16T05:00:30;35.65;;;22.60;;
63112;SDS011;49206;48.020;21.378;2022-10-16T05:01:32;35.17;;;21.23;;
63112;SDS011;49206;48.020;21.378;2022-10-16T05:02:34;31.45;;;20.70;;
63112;SDS011;49206;48.020;21.378;2022-10-16T05:03:36;38.35;;;22.35;;
63112;SDS011;49206;48.020;21.378;2022-10-16T05:04:39;37.72;;;21.88;;
63112;SDS011;49206;48.020;21.378;2022-10-16T05:05:44;35.72;;;22.30;;
63112;SDS011;49206;48.020;21.378;2022-10-16T05:06:49;37.17;;;21.48;;
63112;SDS011;49206;48.020;21.378;2022-10-16T05:07:51;34.80;;;20.33;;
63112;SDS011;49206;48.020;21.378;2022-10-16T05:08:53;35.58;;;21.15;;
63112;SDS011;49206;48.020;21.378;2022-10-16T05:09:55;35.13;;;22.02;;
63112;SDS011;49206;48.020;21.378;2022-10-16T05:10:58;32.15;;;20.92;;
63112;SDS011;49206;48.020;21.378;2022-10-16T05:12:00;32.50;;;20.73;;
63112;SDS011;49206;48.020;21.378;2022-10-16T05:13:03;31.40;;;21.55;;
63112;SDS011;49206;48.020;21.378;2022-10-16T05:14:05;35.45;;;23.48;;
63112;SDS011;49206;48.020;21.378;2022-10-16T05:15:08;31.55;;;20.63;;
63112;SDS011;49206;48.020;21.378;2022-10-16T05:16:10;35.63;;;21.77;;
63112;SDS011;49206;48.020;21.378;2022-10-16T05:17:13;30.27;;;21.33;;
63112;SDS011;49206;48.020;21.378;2022-10-16T05:18:16;37.47;;;23.60;;
63112;SDS011;49206;48.020;21.378;2022-10-16T05:19:19;33.72;;;22.85;;
63112;SDS011;49206;48.020;21.378;2022-10-16T05:20:30;34.90;;;22.15;;
63112;SDS011;49206;48.020;21.378;2022-10-16T05:21:32;32.17;;;21.27;;
63112;SDS011;49206;48.020;21.378;2022-10-16T05:22:34;34.95;;;22.75;;
63112;SDS011;49206;48.020;21.378;2022-10-16T05:23:37;31.90;;;21.60;;
63112;SDS011;49206;48.020;21.378;2022-10-16T05:24:39;35.30;;;23.10;;
63112;SDS011;49206;48.020;21.378;2022-10-16T05:25:42;32.65;;;21.92;;
63112;SDS011;49206;48.020;21.378;2022-10-16T05:26:44;37.00;;;22.92;;
63112;SDS011;49206;48.020;21.378;2022-10-16T05:27:47;34.38;;;22.58;;
63112;SDS011;49206;48.020;21.378;2022-10-16T05:28:50;37.33;;;23.33;;
63112;SDS011;49206;48.020;21.378;2022-10-16T05:29:52;36.58;;;23.92;;
63112;SDS011;49206;48.020;21.378;2022-10-16T05:30:55;37.05;;;23.55;;
63112;SDS011;49206;48.020;21.378;2022-10-16T05:31:58;37.72;;;22.98;;
63112;SDS011;49206;48.020;21.378;2022-10-16T05:33:00;37.42;;;22.42;;
63112;SDS011;49206;48.020;21.378;2022-10-16T05:34:03;31.75;;;22.50;;
63112;SDS011;49206;48.020;21.378;2022-10-16T05:35:05;41.53;;;23.92;;
63112;SDS011;49206;48.020;21.378;2022-10-16T05:36:13;38.20;;;25.73;;
63112;SDS011;49206;48.020;21.378;2022-10-16T05:37:15;32.33;;;23.45;;
63112;SDS011;49206;48.020;21.378;2022-10-16T05:38:18;34.92;;;23.05;;
63112;SDS011;49206;48.020;21.378;2022-10-16T05:39:21;32.78;;;22.35;;
63112;SDS011;49206;48.020;21.378;2022-10-16T05:40:23;30.83;;;22.35;;
63112;SDS011;49206;48.020;21.378;2022-10-16T05:41:26;34.85;;;21.25;;
63112;SDS011;49206;48.020;21.378;2022-10-16T05:42:29;31.65;;;21.95;;
63112;SDS011;49206;48.020;21.378;2022-10-16T05:43:32;35.35;;;24.45;;
63112;SDS011;49206;48.020;21.378;2022-10-16T05:44:34;34.10;;;23.58;;
63112;SDS011;49206;48.020;21.378;2022-10-16T05:45:37;31.83;;;22.58;;
63112;SDS011;49206;48.020;21.378;2022-10-16T05:46:39;30.55;;;21.60;;
63112;SDS011;49206;48.020;21.378;2022-10-16T05:47:41;31.80;;;22.25;;
63112;SDS011;49206;48.020;21.378;2022-10-16T05:48:44;31.77;;;21.00;;
63112;SDS011;49206;48.020;21.378;2022-10-16T05:49:46;27.92;;;21.52;;
63112;SDS011;49206;48.020;21.378;2022-10-16T05:50:55;33.28;;;22.27;;
63112;SDS011;49206;48.020;21.378;2022-10-16T05:51:59;32.80;;;21.00;;
63112;SDS011;49206;48.020;21.378;2022-10-16T05:53:01;26.95;;;20.42;;
63112;SDS011;49206;48.020;21.378;2022-10-16T05:54:04;30.20;;;20.20;;
63112;SDS011;49206;48.020;21.378;2022-10-16T05:55:07;28.10;;;21.50;;
63112;SDS011;49206;48.020;21.378;2022-10-16T05:56:10;26.38;;;18.05;;
63112;SDS011;49206;48.020;21.378;2022-10-16T05:57:14;28.67;;;20.45;;
63112;SDS011;49206;48.020;21.378;2022-10-16T05:58:17;27.70;;;21.05;;
63112;SDS011;49206;48.020;21.378;2022-10-16T05:59:19;26.80;;;20.42;;
63112;SDS011;49206;48.020;21.378;2022-10-16T06:00:21;33.97;;;22.42;;
63112;SDS011;49206;48.020;21.378;2022-10-16T06:01:23;32.65;;;21.75;;
63112;SDS011;49206;48.020;21.378;2022-10-16T06:02:26;31.30;;;21.20;;
63112;SDS011;49206;48.020;21.378;2022-10-16T06:03:28;32.20;;;21.27;;
63112;SDS011;49206;48.020;21.378;2022-10-16T06:04:31;35.22;;;23.00;;
63112;SDS011;49206;48.020;21.378;2022-10-16T06:05:33;31.27;;;22.67;;
63112;SDS011;49206;48.020;21.378;2022-10-16T06:06:35;32.42;;;23.30;;
63112;SDS011;49206;48.020;21.378;2022-10-16T06:07:38;37.45;;;22.75;;
63112;SDS011;49206;48.020;21.378;2022-10-16T06:08:41;35.33;;;23.90;;
63112;SDS011;49206;48.020;21.378;2022-10-16T06:09:51;39.38;;;25.50;;
63112;SDS011;49206;48.020;21.378;2022-10-16T06:11:05;36.10;;;23.48;;
63112;SDS011;49206;48.020;21.378;2022-10-16T06:12:09;33.33;;;21.95;;
63112;SDS011;49206;48.020;21.378;2022-10-16T06:13:11;33.95;;;23.27;;
63112;SDS011;49206;48.020;21.378;2022-10-16T06:14:15;37.42;;;23.40;;
63112;SDS011;49206;48.020;21.378;2022-10-16T06:15:18;32.55;;;23.77;;
63112;SDS011;49206;48.020;21.378;2022-10-16T06:16:20;33.17;;;21.67;;
63112;SDS011;49206;48.020;21.378;2022-10-16T06:17:22;34.55;;;24.50;;
63112;SDS011;49206;48.020;21.378;2022-10-16T06:18:26;35.92;;;22.50;;
63112;SDS011;49206;48.020;21.378;2022-10-16T06:19:31;38.42;;;23.67;;
63112;SDS011;49206;48.020;21.378;2022-10-16T06:20:34;29.60;;;21.58;;
63112;SDS011;49206;48.020;21.378;2022-10-16T06:21:37;32.05;;;21.83;;
63112;SDS011;49206;48.020;21.378;2022-10-16T06:22:43;32.17;;;22.83;;